createdAt,value
2023-12-29T00:01:19.738Z,2.13
2023-12-29T00:03:49.418Z,1.63
2023-12-29T00:06:17.604Z,2.08
2023-12-29T00:08:45.806Z,1.30
2023-12-29T00:11:19.410Z,1.88
2023-12-29T00:13:47.556Z,1.88
2023-12-29T00:16:15.792Z,1.80
2023-12-29T00:18:44.206Z,2.55
2023-12-29T00:21:14.856Z,2.08
2023-12-29T00:23:43.772Z,1.42
2023-12-29T00:26:11.881Z,1.85
2023-12-29T00:28:41.666Z,1.83
2023-12-29T00:31:10.545Z,2.20
2023-12-29T00:33:38.889Z,1.90
2023-12-29T00:36:07.618Z,2.78
2023-12-29T00:38:37.119Z,2.00
2023-12-29T00:41:08.221Z,1.95
2023-12-29T00:43:36.459Z,2.05
2023-12-29T00:46:04.961Z,1.42
2023-12-29T00:48:33.390Z,1.25
2023-12-29T00:51:03.866Z,1.90
2023-12-29T00:53:33.086Z,1.40
2023-12-29T00:56:03.069Z,1.80
2023-12-29T00:58:31.240Z,1.70
2023-12-29T01:00:59.413Z,2.13
2023-12-29T01:03:27.572Z,1.88
2023-12-29T01:05:55.802Z,1.13
2023-12-29T01:08:23.920Z,2.08
2023-12-29T01:10:52.033Z,1.63
2023-12-29T01:13:21.586Z,1.55
2023-12-29T01:15:49.744Z,1.60
2023-12-29T01:18:17.995Z,2.00
2023-12-29T01:20:46.395Z,1.52
2023-12-29T01:23:14.546Z,2.38
2023-12-29T01:25:42.830Z,1.80
2023-12-29T01:28:11.078Z,1.85
2023-12-29T01:30:40.800Z,1.52
2023-12-29T01:33:09.064Z,2.17
2023-12-29T01:35:38.248Z,1.27
2023-12-29T01:38:06.648Z,1.80
2023-12-29T01:40:35.118Z,1.40
2023-12-29T01:43:03.421Z,1.63
2023-12-29T01:45:32.584Z,2.00
2023-12-29T01:48:04.563Z,1.73
2023-12-29T01:50:33.877Z,1.70
2023-12-29T01:53:03.765Z,2.05
2023-12-29T01:55:32.445Z,1.77
2023-12-29T01:58:01.537Z,1.38
2023-12-29T02:00:30.215Z,1.45
2023-12-29T02:02:58.605Z,1.90
2023-12-29T02:05:32.102Z,1.90
2023-12-29T02:08:01.163Z,1.90
2023-12-29T02:10:29.783Z,1.70
2023-12-29T02:13:00.601Z,1.90
2023-12-29T02:15:28.959Z,1.13
2023-12-29T02:18:04.112Z,1.13
2023-12-29T02:23:02.011Z,1.48
2023-12-29T02:25:31.812Z,2.17
2023-12-29T02:28:06.526Z,1.98
2023-12-29T02:30:40.514Z,2.05
2023-12-29T02:33:12.342Z,2.25
2023-12-29T02:35:44.525Z,2.13
2023-12-29T02:38:13.206Z,1.80
2023-12-29T02:40:43.355Z,1.50
2023-12-29T02:43:12.055Z,2.30
2023-12-29T02:45:40.356Z,1.30
2023-12-29T02:48:09.527Z,2.00
2023-12-29T02:50:37.661Z,2.05
2023-12-29T02:53:06.159Z,1.30
2023-12-29T02:55:34.302Z,1.40
2023-12-29T02:58:04.105Z,2.20
2023-12-29T03:00:32.526Z,1.58
2023-12-29T03:03:00.840Z,1.27
2023-12-29T03:05:28.985Z,1.80
2023-12-29T03:07:57.136Z,1.00
2023-12-29T03:10:25.240Z,1.20
2023-12-29T03:12:53.366Z,2.03
2023-12-29T03:15:22.853Z,2.22
2023-12-29T03:17:51.020Z,1.55
2023-12-29T03:20:19.205Z,2.20
2023-12-29T03:22:47.395Z,1.58
2023-12-29T03:25:15.786Z,1.20
2023-12-29T03:27:43.936Z,1.98
2023-12-29T03:30:13.507Z,1.83
2023-12-29T03:32:43.110Z,1.17
2023-12-29T03:35:11.270Z,1.55
2023-12-29T03:37:40.380Z,1.60
2023-12-29T03:40:10.045Z,1.20
2023-12-29T03:42:38.273Z,2.22
2023-12-29T03:45:07.131Z,1.73
2023-12-29T03:47:36.830Z,2.17
2023-12-29T03:50:07.120Z,1.92
2023-12-29T03:52:35.857Z,1.55
2023-12-29T03:55:04.253Z,1.80
2023-12-29T03:57:32.433Z,1.80
2023-12-29T04:00:00.655Z,1.67
2023-12-29T04:02:28.789Z,1.48
2023-12-29T04:04:57.006Z,1.65
2023-12-29T04:07:26.546Z,1.70
2023-12-29T04:09:54.698Z,1.70
2023-12-29T04:12:22.877Z,1.73
2023-12-29T04:14:50.983Z,1.90
2023-12-29T04:17:19.142Z,2.05
2023-12-29T04:19:47.288Z,1.60
2023-12-29T04:22:15.408Z,1.85
2023-12-29T04:24:44.887Z,2.05
2023-12-29T04:27:13.141Z,1.90
2023-12-29T04:29:41.255Z,1.75
2023-12-29T04:32:09.330Z,0.75
2023-12-29T04:34:37.521Z,1.70
2023-12-29T04:37:05.789Z,1.60
2023-12-29T04:39:33.991Z,1.70
2023-12-29T04:42:03.636Z,1.50
2023-12-29T04:44:31.734Z,1.23
2023-12-29T04:46:59.897Z,1.55
2023-12-29T04:49:28.073Z,1.58
2023-12-29T04:51:56.339Z,1.73
2023-12-29T04:54:26.391Z,1.23
2023-12-29T04:56:54.547Z,1.90
2023-12-29T04:59:24.047Z,1.63
2023-12-29T05:01:52.169Z,1.77
2023-12-29T05:04:20.354Z,1.52
2023-12-29T05:06:48.481Z,1.65
2023-12-29T05:09:16.805Z,1.63
2023-12-29T05:11:45.390Z,2.05
2023-12-29T05:14:13.612Z,1.65
2023-12-29T05:16:43.634Z,1.15
2023-12-29T05:19:11.878Z,1.55
2023-12-29T05:21:40.024Z,1.55
2023-12-29T05:24:08.333Z,1.92
2023-12-29T05:26:36.584Z,1.98
2023-12-29T05:29:04.951Z,1.50
2023-12-29T05:31:33.098Z,1.70
2023-12-29T05:34:02.734Z,2.35
2023-12-29T05:36:30.944Z,1.77
2023-12-29T05:38:59.180Z,1.98
2023-12-29T05:41:27.379Z,1.60
2023-12-29T05:43:55.555Z,1.70
2023-12-29T05:46:23.712Z,1.65
2023-12-29T05:48:53.511Z,1.67
2023-12-29T05:51:23.860Z,1.70
2023-12-29T05:53:52.024Z,1.70
2023-12-29T05:56:22.610Z,1.70
2023-12-29T05:58:50.948Z,2.78
2023-12-29T06:01:19.219Z,1.67
2023-12-29T06:03:47.535Z,1.90
2023-12-29T06:06:15.827Z,2.10
2023-12-29T06:08:45.428Z,2.25
2023-12-29T06:11:17.934Z,1.90
2023-12-29T06:13:46.165Z,2.00
2023-12-29T06:16:20.686Z,1.90
2023-12-29T06:18:49.435Z,1.60
2023-12-29T06:21:18.974Z,1.98
2023-12-29T06:23:48.628Z,1.65
2023-12-29T06:26:18.150Z,2.20
2023-12-29T06:28:46.546Z,1.70
2023-12-29T06:31:15.107Z,2.22
2023-12-29T06:33:43.889Z,1.92
2023-12-29T06:36:12.756Z,2.08
2023-12-29T06:38:40.965Z,1.60
2023-12-29T06:41:10.483Z,1.73
2023-12-29T06:43:38.681Z,1.73
2023-12-29T06:46:07.580Z,1.35
2023-12-29T06:48:36.048Z,0.80
2023-12-29T06:51:04.325Z,1.42
2023-12-29T06:53:32.515Z,1.90
2023-12-29T06:56:00.754Z,1.50
2023-12-29T06:58:30.413Z,1.25
2023-12-29T07:00:58.667Z,1.52
2023-12-29T07:03:26.914Z,1.48
2023-12-29T07:05:55.154Z,1.17
2023-12-29T07:08:23.337Z,1.23
2023-12-29T07:10:51.527Z,0.65
2023-12-29T07:13:20.481Z,1.30
2023-12-29T07:15:50.727Z,1.50
2023-12-29T07:18:19.006Z,1.10
2023-12-29T07:20:47.280Z,1.48
2023-12-29T07:23:15.462Z,1.45
2023-12-29T07:25:43.878Z,1.02
2023-12-29T07:28:12.146Z,1.00
2023-12-29T07:30:40.474Z,1.20
2023-12-29T07:33:10.244Z,1.02
2023-12-29T07:35:38.645Z,1.48
2023-12-29T07:38:06.859Z,1.73
2023-12-29T07:40:35.043Z,1.10
2023-12-29T07:43:03.252Z,0.88
2023-12-29T07:45:31.445Z,1.15
2023-12-29T07:48:00.040Z,1.65
2023-12-29T07:50:29.817Z,1.15
2023-12-29T07:52:58.145Z,1.02
2023-12-29T07:55:26.248Z,0.80
2023-12-29T07:57:54.535Z,1.00
2023-12-29T08:00:23.233Z,0.77
2023-12-29T08:02:52.603Z,1.20
2023-12-29T08:05:21.080Z,0.93
2023-12-29T08:07:50.569Z,1.13
2023-12-29T08:10:18.931Z,1.25
2023-12-29T08:12:47.172Z,1.00
2023-12-29T08:15:15.403Z,1.10
2023-12-29T08:17:43.936Z,1.48
2023-12-29T08:20:13.050Z,1.27
2023-12-29T08:22:41.164Z,0.95
2023-12-29T08:25:10.913Z,1.40
2023-12-29T08:27:39.546Z,1.23
2023-12-29T08:30:09.298Z,1.10
2023-12-29T08:32:37.453Z,1.02
2023-12-29T08:35:07.469Z,1.13
2023-12-29T08:37:35.859Z,0.73
2023-12-29T08:40:05.204Z,0.90
2023-12-29T08:42:34.794Z,1.25
2023-12-29T08:45:05.768Z,1.27
2023-12-29T08:47:34.627Z,1.15
2023-12-29T08:50:03.389Z,1.80
2023-12-29T08:52:31.519Z,1.60
2023-12-29T08:54:59.608Z,1.88
2023-12-29T08:57:27.756Z,1.30
2023-12-29T08:59:57.232Z,1.55
2023-12-29T09:02:25.432Z,1.35
2023-12-29T09:04:53.698Z,1.38
2023-12-29T09:07:21.872Z,0.73
2023-12-29T09:09:50.063Z,0.65
2023-12-29T09:12:18.173Z,0.63
2023-12-29T09:14:46.290Z,0.70
2023-12-29T09:17:15.856Z,0.60
2023-12-29T09:19:45.930Z,0.70
2023-12-29T09:22:15.492Z,1.13
2023-12-29T09:24:44.465Z,1.23
2023-12-29T09:27:12.666Z,1.67
2023-12-29T09:29:41.184Z,1.38
2023-12-29T09:32:09.530Z,1.35
2023-12-29T09:34:39.148Z,1.65
2023-12-29T09:37:07.326Z,1.38
2023-12-29T09:39:35.600Z,1.58
2023-12-29T09:42:05.786Z,1.10
2023-12-29T09:44:36.054Z,1.50
2023-12-29T09:47:05.499Z,1.27
2023-12-29T09:49:43.271Z,1.20
2023-12-29T09:52:14.849Z,1.33
2023-12-29T09:54:43.926Z,0.93
2023-12-29T09:57:13.567Z,1.15
2023-12-29T09:59:44.214Z,1.30
2023-12-29T10:02:17.379Z,1.08
2023-12-29T10:04:47.160Z,0.93
2023-12-29T10:07:23.874Z,0.80
2023-12-29T10:09:56.777Z,0.77
2023-12-29T10:12:27.141Z,0.73
2023-12-29T10:15:15.203Z,0.70
2023-12-29T10:17:51.862Z,1.00
2023-12-29T10:20:33.208Z,1.00
2023-12-29T10:23:09.548Z,0.70
2023-12-29T10:25:38.195Z,0.68
2023-12-29T10:28:07.683Z,0.68
2023-12-29T10:30:36.526Z,0.57
2023-12-29T10:33:07.426Z,0.90
2023-12-29T10:35:39.048Z,0.82
2023-12-29T10:38:14.807Z,1.20
2023-12-29T10:40:44.128Z,1.30
2023-12-29T10:43:12.503Z,0.90
2023-12-29T10:45:40.740Z,2.08
2023-12-29T10:48:09.820Z,1.67
2023-12-29T10:50:47.171Z,1.00
2023-12-29T10:53:16.033Z,1.80
2023-12-29T10:55:44.185Z,1.90
2023-12-29T10:58:12.566Z,1.98
2023-12-29T11:00:40.822Z,1.90
2023-12-29T11:03:09.444Z,1.45
2023-12-29T11:05:37.889Z,1.40
2023-12-29T11:08:18.176Z,1.10
2023-12-29T11:10:47.270Z,1.20
2023-12-29T11:13:18.686Z,1.48
2023-12-29T11:15:49.408Z,1.50
2023-12-29T11:18:19.235Z,1.48
2023-12-29T11:20:48.728Z,1.90
2023-12-29T11:23:19.196Z,1.75
2023-12-29T11:25:48.172Z,1.92
2023-12-29T11:28:16.907Z,1.73
2023-12-29T11:30:45.431Z,1.40
2023-12-29T11:33:19.858Z,1.45
2023-12-29T11:35:51.854Z,1.80
2023-12-29T11:38:41.344Z,1.52
2023-12-29T11:41:14.675Z,1.63
2023-12-29T11:43:42.798Z,1.42
2023-12-29T11:46:34.890Z,1.85
2023-12-29T11:49:05.394Z,1.48
2023-12-29T11:51:35.218Z,1.30
2023-12-29T11:54:05.707Z,1.67
2023-12-29T11:56:38.228Z,1.92
2023-12-29T11:59:16.742Z,1.67
2023-12-29T12:01:45.925Z,1.63
2023-12-29T12:04:36.943Z,1.60
2023-12-29T12:07:06.626Z,2.28
2023-12-29T12:09:37.049Z,1.60
2023-12-29T12:12:05.939Z,0.63
2023-12-29T12:14:50.223Z,1.55
2023-12-29T12:17:32.368Z,1.77
2023-12-29T12:20:03.387Z,2.03
2023-12-29T12:22:36.656Z,1.52
2023-12-29T12:25:09.092Z,1.55
2023-12-29T12:27:40.679Z,1.40
2023-12-29T12:30:11.695Z,1.00
2023-12-29T12:32:40.445Z,1.42
2023-12-29T12:35:19.747Z,1.38
2023-12-29T12:37:48.697Z,1.45
2023-12-29T12:40:28.932Z,1.65
2023-12-29T12:42:57.347Z,1.20
2023-12-29T12:45:28.932Z,1.30
2023-12-29T12:48:02.380Z,1.58
2023-12-29T12:50:30.799Z,1.15
2023-12-29T12:52:59.892Z,0.60
2023-12-29T12:55:34.398Z,0.68
2023-12-29T12:58:03.058Z,0.60
2023-12-29T13:00:31.492Z,0.77
2023-12-29T13:03:00.249Z,0.50
2023-12-29T13:05:28.641Z,0.80
2023-12-29T13:07:58.009Z,0.88
2023-12-29T13:10:26.388Z,1.02
2023-12-29T13:12:59.067Z,0.90
2023-12-29T13:15:27.559Z,0.80
2023-12-29T13:17:56.196Z,0.70
2023-12-29T13:20:24.402Z,1.00
2023-12-29T13:22:55.109Z,0.90
2023-12-29T13:25:26.653Z,0.85
2023-12-29T13:27:56.477Z,0.80
2023-12-29T13:30:26.256Z,0.82
2023-12-29T13:32:55.794Z,0.70
2023-12-29T13:35:27.921Z,0.80
2023-12-29T13:38:06.069Z,0.40
2023-12-29T13:40:41.043Z,0.63
2023-12-29T13:43:11.471Z,0.73
2023-12-29T13:45:44.448Z,0.88
2023-12-29T13:48:14.155Z,1.00
2023-12-29T13:50:42.719Z,1.33
2023-12-29T13:53:12.579Z,1.60
2023-12-29T13:55:40.940Z,1.35
2023-12-29T13:58:12.273Z,1.00
2023-12-29T14:00:43.059Z,1.23
2023-12-29T14:03:16.995Z,1.33
2023-12-29T14:05:53.409Z,1.20
2023-12-29T14:08:27.457Z,1.52
2023-12-29T14:10:55.678Z,1.23
2023-12-29T14:13:24.123Z,0.98
2023-12-29T14:15:53.873Z,1.15
2023-12-29T14:18:45.794Z,1.08
2023-12-29T14:21:24.423Z,1.00
2023-12-29T14:24:05.078Z,1.10
2023-12-29T14:26:33.263Z,1.13
2023-12-29T14:29:08.300Z,1.10
2023-12-29T14:31:42.236Z,1.25
2023-12-29T14:34:11.383Z,1.38
2023-12-29T14:36:41.385Z,1.30
2023-12-29T14:39:11.368Z,1.25
2023-12-29T14:41:39.860Z,1.00
2023-12-29T14:44:08.109Z,1.27
2023-12-29T14:46:37.970Z,1.10
2023-12-29T14:49:09.043Z,1.25
2023-12-29T14:51:37.752Z,1.35
2023-12-29T14:54:05.996Z,1.17
2023-12-29T14:56:34.217Z,1.30
2023-12-29T14:59:03.051Z,0.85
2023-12-29T15:01:32.552Z,1.40
2023-12-29T15:04:00.913Z,1.30
2023-12-29T15:06:30.433Z,1.02
2023-12-29T15:08:58.551Z,1.10
2023-12-29T15:11:26.660Z,1.30
2023-12-29T15:13:54.814Z,1.05
2023-12-29T15:16:22.936Z,0.88
2023-12-29T15:18:51.269Z,1.17
2023-12-29T15:21:19.504Z,1.35
2023-12-29T15:23:49.034Z,1.15
2023-12-29T15:26:18.657Z,1.02
2023-12-29T15:28:46.836Z,1.00
2023-12-29T15:31:17.331Z,1.08
2023-12-29T15:33:45.886Z,1.10
2023-12-29T15:36:15.557Z,1.27
2023-12-29T15:38:43.891Z,1.23
2023-12-29T15:41:13.376Z,1.70
2023-12-29T15:43:41.523Z,1.40
2023-12-29T15:46:15.496Z,1.60
2023-12-29T15:48:43.711Z,1.40
2023-12-29T15:51:12.375Z,1.65
2023-12-29T15:53:41.695Z,1.48
2023-12-29T15:56:10.341Z,1.58
2023-12-29T15:58:39.859Z,1.20
2023-12-29T16:01:08.049Z,1.50
2023-12-29T16:03:36.259Z,1.30
2023-12-29T16:06:04.482Z,1.67
2023-12-29T16:08:32.927Z,1.48
2023-12-29T16:11:01.411Z,1.20
2023-12-29T16:13:29.565Z,1.35
2023-12-29T16:15:59.056Z,1.17
2023-12-29T16:18:27.232Z,1.63
2023-12-29T16:20:55.440Z,1.40
2023-12-29T16:23:23.524Z,1.58
2023-12-29T16:25:51.698Z,2.13
2023-12-29T16:28:19.882Z,3.35
2023-12-29T16:30:48.671Z,1.92
2023-12-29T16:33:18.309Z,1.38
2023-12-29T16:35:46.470Z,1.92
2023-12-29T16:38:14.685Z,1.48
2023-12-29T16:40:46.947Z,1.92
2023-12-29T16:43:15.186Z,1.60
2023-12-29T16:45:43.466Z,1.35
2023-12-29T16:48:11.829Z,1.98
2023-12-29T16:50:42.067Z,1.92
2023-12-29T16:53:10.332Z,1.38
2023-12-29T16:55:38.490Z,1.52
2023-12-29T16:58:07.011Z,1.60
2023-12-29T17:00:35.211Z,1.40
2023-12-29T17:03:03.548Z,1.73
2023-12-29T17:05:31.950Z,2.28
2023-12-29T17:08:01.833Z,3.17
2023-12-29T17:10:30.165Z,1.80
2023-12-29T17:12:58.395Z,2.00
2023-12-29T17:15:26.666Z,1.70
2023-12-29T17:17:55.823Z,1.77
2023-12-29T17:20:24.074Z,1.42
2023-12-29T17:22:52.159Z,1.85
2023-12-29T17:25:21.767Z,1.50
2023-12-29T17:27:50.081Z,1.50
2023-12-29T17:30:19.433Z,2.38
2023-12-29T17:32:47.632Z,1.98
2023-12-29T17:35:16.033Z,1.90
2023-12-29T17:37:44.204Z,0.65
2023-12-29T17:40:13.549Z,1.95
2023-12-29T17:42:44.088Z,1.58
2023-12-29T17:45:12.702Z,1.77
2023-12-29T17:47:43.629Z,1.83
2023-12-29T17:50:13.060Z,1.95
2023-12-29T17:52:41.206Z,1.92
2023-12-29T17:55:10.145Z,2.10
2023-12-29T17:57:40.656Z,1.65
2023-12-29T18:00:11.337Z,2.03
2023-12-29T18:02:39.550Z,2.17
2023-12-29T18:05:08.259Z,0.82
2023-12-29T18:07:36.525Z,2.33
2023-12-29T18:10:05.298Z,2.08
2023-12-29T18:12:33.631Z,1.83
2023-12-29T18:15:01.762Z,1.48
2023-12-29T18:17:34.553Z,1.73
2023-12-29T18:20:02.956Z,1.88
2023-12-29T18:22:31.194Z,1.90
2023-12-29T18:25:00.641Z,1.40
2023-12-29T18:27:31.808Z,2.38
2023-12-29T18:29:59.932Z,1.30
2023-12-29T18:32:28.558Z,2.28
2023-12-29T18:34:58.288Z,1.33
2023-12-29T18:37:26.499Z,1.50
2023-12-29T18:39:54.748Z,1.90
2023-12-29T18:42:22.896Z,1.58
2023-12-29T18:44:51.119Z,1.88
2023-12-29T18:47:19.329Z,2.40
2023-12-29T18:49:47.643Z,2.30
2023-12-29T18:52:17.273Z,2.00
2023-12-29T18:54:46.359Z,2.35
2023-12-29T18:57:16.419Z,2.13
2023-12-29T18:59:46.914Z,1.92
2023-12-29T19:02:17.468Z,1.77
2023-12-29T19:04:46.220Z,1.85
2023-12-29T19:07:19.884Z,1.92
2023-12-29T19:09:51.103Z,2.17
2023-12-29T19:12:19.388Z,1.88
2023-12-29T19:14:53.820Z,2.05
2023-12-29T19:17:22.663Z,1.48
2023-12-29T19:19:50.823Z,2.03
2023-12-29T19:22:19.112Z,1.98
2023-12-29T19:24:48.900Z,2.20
2023-12-29T19:27:18.825Z,1.85
2023-12-29T19:29:47.008Z,2.53
2023-12-29T19:32:15.134Z,2.05
2023-12-29T19:34:44.233Z,1.90
2023-12-29T19:37:12.606Z,2.20
2023-12-29T19:39:42.726Z,2.33
2023-12-29T19:42:11.226Z,2.88
2023-12-29T19:44:40.717Z,0.73
2023-12-29T19:47:09.646Z,2.83
2023-12-29T19:49:38.062Z,2.10
2023-12-29T19:52:07.055Z,2.13
2023-12-29T19:54:35.367Z,2.28
2023-12-29T19:57:04.114Z,2.03
2023-12-29T19:59:32.277Z,2.33
2023-12-29T20:02:01.962Z,2.35
2023-12-29T20:04:30.695Z,3.45
2023-12-29T20:06:58.867Z,2.53
2023-12-29T20:09:27.050Z,2.83
2023-12-29T20:11:55.231Z,2.95
2023-12-29T20:14:23.409Z,2.53
2023-12-29T20:16:51.575Z,2.85
2023-12-29T20:19:21.194Z,2.50
2023-12-29T20:21:49.360Z,2.45
2023-12-29T20:24:17.775Z,2.78
2023-12-29T20:26:45.921Z,2.72
2023-12-29T20:29:16.093Z,2.90
2023-12-29T20:31:44.948Z,2.20
2023-12-29T20:34:13.218Z,3.58
2023-12-29T20:36:42.754Z,2.50
2023-12-29T20:39:10.979Z,3.67
2023-12-29T20:41:39.159Z,2.97
2023-12-29T20:44:07.702Z,2.47
2023-12-29T20:46:35.987Z,3.03
2023-12-29T20:49:04.257Z,3.15
2023-12-29T20:51:32.428Z,2.88
2023-12-29T20:54:02.088Z,2.72
2023-12-29T20:56:30.238Z,3.47
2023-12-29T20:58:58.361Z,2.80
2023-12-29T21:01:26.851Z,3.30
2023-12-29T21:03:55.224Z,2.60
2023-12-29T21:06:23.681Z,2.58
2023-12-29T21:08:51.900Z,2.50
2023-12-29T21:11:22.539Z,2.15
2023-12-29T21:13:51.088Z,2.30
2023-12-29T21:16:20.593Z,2.72
2023-12-29T21:18:50.612Z,1.70
2023-12-29T21:21:19.573Z,1.95
2023-12-29T21:23:48.897Z,2.33
2023-12-29T21:26:23.765Z,2.63
2023-12-29T21:28:52.707Z,2.22
2023-12-29T21:31:21.659Z,2.47
2023-12-29T21:33:50.031Z,2.08
2023-12-29T21:36:24.367Z,3.05
2023-12-29T21:38:52.826Z,2.67
2023-12-29T21:41:22.703Z,2.83
2023-12-29T21:43:51.267Z,2.30
2023-12-29T21:46:19.652Z,2.83
2023-12-29T21:48:46.911Z,2.80
2023-12-29T21:51:15.253Z,3.13
2023-12-29T21:53:43.476Z,2.45
2023-12-29T21:56:11.680Z,2.38
2023-12-29T21:58:41.198Z,2.70
2023-12-29T22:01:28.979Z,2.63
2023-12-29T22:03:57.893Z,3.67
2023-12-29T22:06:26.259Z,2.70
2023-12-29T22:08:54.488Z,2.33
2023-12-29T22:11:22.680Z,2.83
2023-12-29T22:13:52.268Z,2.38
2023-12-29T22:16:21.542Z,2.42
2023-12-29T22:18:49.827Z,2.85
2023-12-29T22:21:19.308Z,2.10
2023-12-29T22:23:48.033Z,2.85
2023-12-29T22:26:16.795Z,2.78
2023-12-29T22:28:46.112Z,2.72
2023-12-29T22:31:16.350Z,3.13
2023-12-29T22:33:46.543Z,1.95
2023-12-29T22:36:16.484Z,1.92
2023-12-29T22:38:45.195Z,2.80
2023-12-29T22:41:16.599Z,2.97
2023-12-29T22:43:45.128Z,2.80
2023-12-29T22:46:19.528Z,2.13
2023-12-29T22:48:50.581Z,2.97
2023-12-29T22:51:18.899Z,2.92
2023-12-29T22:53:47.012Z,2.75
2023-12-29T22:56:15.165Z,2.10
2023-12-29T22:58:43.399Z,2.22
2023-12-29T23:01:12.190Z,2.90
2023-12-29T23:03:41.833Z,2.85
2023-12-29T23:06:10.280Z,3.67
2023-12-29T23:08:38.427Z,2.78
2023-12-29T23:11:06.692Z,2.55
2023-12-29T23:13:35.113Z,3.20
2023-12-29T23:16:03.302Z,2.33
2023-12-29T23:18:31.462Z,2.60
2023-12-29T23:21:00.966Z,2.95
2023-12-29T23:23:29.067Z,2.20
2023-12-29T23:25:57.370Z,2.50
2023-12-29T23:28:25.527Z,2.67
2023-12-29T23:30:53.727Z,2.80
2023-12-29T23:33:21.904Z,2.20
2023-12-29T23:35:50.261Z,2.92
2023-12-29T23:38:20.196Z,2.35
2023-12-29T23:40:48.351Z,2.22
2023-12-29T23:43:16.601Z,2.08
2023-12-29T23:45:44.768Z,2.28
2023-12-29T23:48:13.098Z,1.98
2023-12-29T23:50:41.295Z,2.92
2023-12-29T23:53:09.472Z,2.30
2023-12-29T23:55:38.901Z,2.13
2023-12-29T23:58:07.126Z,3.05
